Urb El Laurel, Puerto Rico
Current Conditions -  °F | °C
As of 2:56 AM on Saturday 29 Nov 2014 (Local Time) from TJSJ Reporting Station
Broken Clouds Broken Clouds  
Wind Chill: 75°   Ceiling: 7000
Heat Index: 75°   Visibility: 10mi
Dew Point: 70°   Wind: 0mph
Humidity: 84%   Direction: NA
Pressure: 29.93"   Gusts: NA
Location:  18.0474°N, 66.5517°W
Report Text: TJSJ 290656Z 00000KT 10SM FEW024 BKN070 24/21 A2993 RMK AO2 SLP132 T02390211
Loading
Personal Weather Stations






























Interactive Weather Map New forecast layout! Learn more

10-Day Weather Forecast

Advertisements
Track Severe Weather on mobile